sensor_id;sensor_type;location;lat;lon;timestamp;temperature;humidity
15217;DHT22;7711;46.634;14.318;2022-08-05T00:02:21;20.70;99.90
15217;DHT22;7711;46.634;14.318;2022-08-05T00:04:48;20.80;99.90
15217;DHT22;7711;46.634;14.318;2022-08-05T00:07:16;20.90;99.90
15217;DHT22;7711;46.634;14.318;2022-08-05T00:09:44;20.90;99.90
15217;DHT22;7711;46.634;14.318;2022-08-05T00:12:11;20.90;99.90
15217;DHT22;7711;46.634;14.318;2022-08-05T00:14:40;20.90;99.90
15217;DHT22;7711;46.634;14.318;2022-08-05T00:17:19;20.90;99.90
15217;DHT22;7711;46.634;14.318;2022-08-05T00:19:47;20.80;99.90
15217;DHT22;7711;46.634;14.318;2022-08-05T00:22:15;20.60;99.90
15217;DHT22;7711;46.634;14.318;2022-08-05T00:24:42;20.60;99.90
15217;DHT22;7711;46.634;14.318;2022-08-05T00:27:11;20.50;99.90
15217;DHT22;7711;46.634;14.318;2022-08-05T00:29:42;20.40;99.90
15217;DHT22;7711;46.634;14.318;2022-08-05T00:32:09;20.40;99.90
15217;DHT22;7711;46.634;14.318;2022-08-05T00:34:40;20.40;99.90
15217;DHT22;7711;46.634;14.318;2022-08-05T00:37:10;20.40;99.90
15217;DHT22;7711;46.634;14.318;2022-08-05T00:39:37;20.40;99.90
15217;DHT22;7711;46.634;14.318;2022-08-05T00:42:07;20.40;99.90
15217;DHT22;7711;46.634;14.318;2022-08-05T00:44:35;20.40;99.90
15217;DHT22;7711;46.634;14.318;2022-08-05T00:47:03;20.30;99.90
15217;DHT22;7711;46.634;14.318;2022-08-05T00:49:31;20.30;99.90
15217;DHT22;7711;46.634;14.318;2022-08-05T00:52:00;20.30;99.90
15217;DHT22;7711;46.634;14.318;2022-08-05T00:54:29;20.20;99.90
15217;DHT22;7711;46.634;14.318;2022-08-05T00:56:57;20.10;99.90
15217;DHT22;7711;46.634;14.318;2022-08-05T00:59:24;20.10;99.90
15217;DHT22;7711;46.634;14.318;2022-08-05T01:01:53;20.30;99.90
15217;DHT22;7711;46.634;14.318;2022-08-05T01:04:20;20.20;99.90
15217;DHT22;7711;46.634;14.318;2022-08-05T01:06:48;20.10;99.90
15217;DHT22;7711;46.634;14.318;2022-08-05T01:09:19;20.00;99.90
15217;DHT22;7711;46.634;14.318;2022-08-05T01:11:52;20.00;99.90
15217;DHT22;7711;46.634;14.318;2022-08-05T01:14:34;20.00;99.90
15217;DHT22;7711;46.634;14.318;2022-08-05T01:17:04;20.10;99.90
15217;DHT22;7711;46.634;14.318;2022-08-05T01:19:35;20.10;99.90
15217;DHT22;7711;46.634;14.318;2022-08-05T01:22:17;20.00;99.90
15217;DHT22;7711;46.634;14.318;2022-08-05T01:25:19;19.90;99.90
15217;DHT22;7711;46.634;14.318;2022-08-05T01:28:22;19.80;99.90
15217;DHT22;7711;46.634;14.318;2022-08-05T01:30:56;19.70;99.90
15217;DHT22;7711;46.634;14.318;2022-08-05T01:33:30;19.60;99.90
15217;DHT22;7711;46.634;14.318;2022-08-05T01:36:02;19.60;99.90
15217;DHT22;7711;46.634;14.318;2022-08-05T01:38:34;19.70;99.90
15217;DHT22;7711;46.634;14.318;2022-08-05T01:41:05;19.70;99.90
15217;DHT22;7711;46.634;14.318;2022-08-05T01:43:35;19.60;99.90
15217;DHT22;7711;46.634;14.318;2022-08-05T01:46:04;19.80;99.90
15217;DHT22;7711;46.634;14.318;2022-08-05T01:48:34;19.70;99.90
15217;DHT22;7711;46.634;14.318;2022-08-05T01:51:04;19.60;99.90
15217;DHT22;7711;46.634;14.318;2022-08-05T01:53:34;19.70;99.90
15217;DHT22;7711;46.634;14.318;2022-08-05T01:56:08;19.80;99.90
15217;DHT22;7711;46.634;14.318;2022-08-05T01:58:38;19.80;99.90
15217;DHT22;7711;46.634;14.318;2022-08-05T02:01:08;19.60;99.90
15217;DHT22;7711;46.634;14.318;2022-08-05T02:03:39;19.50;99.90
15217;DHT22;7711;46.634;14.318;2022-08-05T02:06:09;19.50;99.90
15217;DHT22;7711;46.634;14.318;2022-08-05T02:08:38;19.40;99.90
15217;DHT22;7711;46.634;14.318;2022-08-05T02:11:09;19.40;99.90
15217;DHT22;7711;46.634;14.318;2022-08-05T02:13:43;19.40;99.90
15217;DHT22;7711;46.634;14.318;2022-08-05T02:16:15;19.40;99.90
15217;DHT22;7711;46.634;14.318;2022-08-05T02:18:49;19.30;99.90
15217;DHT22;7711;46.634;14.318;2022-08-05T02:21:23;19.20;99.90
15217;DHT22;7711;46.634;14.318;2022-08-05T02:23:58;19.30;99.90
15217;DHT22;7711;46.634;14.318;2022-08-05T02:26:34;19.30;99.90
15217;DHT22;7711;46.634;14.318;2022-08-05T02:29:06;19.30;99.90
15217;DHT22;7711;46.634;14.318;2022-08-05T02:31:36;19.20;99.90
15217;DHT22;7711;46.634;14.318;2022-08-05T02:34:07;19.20;99.90
15217;DHT22;7711;46.634;14.318;2022-08-05T02:36:41;19.20;99.90
15217;DHT22;7711;46.634;14.318;2022-08-05T02:39:11;19.10;99.90
15217;DHT22;7711;46.634;14.318;2022-08-05T02:41:44;19.10;99.90
15217;DHT22;7711;46.634;14.318;2022-08-05T02:44:15;19.10;99.90
15217;DHT22;7711;46.634;14.318;2022-08-05T02:46:45;19.10;99.90
15217;DHT22;7711;46.634;14.318;2022-08-05T02:49:15;19.10;99.90
15217;DHT22;7711;46.634;14.318;2022-08-05T02:51:46;19.10;99.90
15217;DHT22;7711;46.634;14.318;2022-08-05T02:54:16;19.00;99.90
15217;DHT22;7711;46.634;14.318;2022-08-05T02:56:47;19.10;99.90
15217;DHT22;7711;46.634;14.318;2022-08-05T02:59:20;19.00;99.90
15217;DHT22;7711;46.634;14.318;2022-08-05T03:01:53;19.10;99.90
15217;DHT22;7711;46.634;14.318;2022-08-05T03:04:28;19.10;99.90
15217;DHT22;7711;46.634;14.318;2022-08-05T03:06:57;19.00;99.90
15217;DHT22;7711;46.634;14.318;2022-08-05T03:09:26;18.90;99.90
15217;DHT22;7711;46.634;14.318;2022-08-05T03:11:54;18.90;99.90
15217;DHT22;7711;46.634;14.318;2022-08-05T03:14:23;19.00;99.90
15217;DHT22;7711;46.634;14.318;2022-08-05T03:16:54;18.90;99.90
15217;DHT22;7711;46.634;14.318;2022-08-05T03:19:22;18.80;99.90
15217;DHT22;7711;46.634;14.318;2022-08-05T03:21:50;18.80;99.90
15217;DHT22;7711;46.634;14.318;2022-08-05T03:24:18;18.80;99.90
15217;DHT22;7711;46.634;14.318;2022-08-05T03:26:46;18.80;99.90
15217;DHT22;7711;46.634;14.318;2022-08-05T03:29:14;18.70;99.90
15217;DHT22;7711;46.634;14.318;2022-08-05T03:31:44;18.70;99.90
15217;DHT22;7711;46.634;14.318;2022-08-05T03:34:12;18.70;99.90
15217;DHT22;7711;46.634;14.318;2022-08-05T03:36:43;18.80;99.90
15217;DHT22;7711;46.634;14.318;2022-08-05T03:39:13;18.80;99.90
15217;DHT22;7711;46.634;14.318;2022-08-05T03:41:40;18.70;99.90
15217;DHT22;7711;46.634;14.318;2022-08-05T03:44:08;18.50;99.90
15217;DHT22;7711;46.634;14.318;2022-08-05T03:46:36;18.50;99.90
15217;DHT22;7711;46.634;14.318;2022-08-05T03:49:05;18.40;99.90
15217;DHT22;7711;46.634;14.318;2022-08-05T03:51:37;18.50;99.90
15217;DHT22;7711;46.634;14.318;2022-08-05T03:54:09;18.50;99.90
15217;DHT22;7711;46.634;14.318;2022-08-05T03:56:41;18.40;99.90
15217;DHT22;7711;46.634;14.318;2022-08-05T03:59:12;18.30;99.90
15217;DHT22;7711;46.634;14.318;2022-08-05T04:01:43;18.30;99.90
15217;DHT22;7711;46.634;14.318;2022-08-05T04:04:14;18.40;99.90
15217;DHT22;7711;46.634;14.318;2022-08-05T04:06:42;18.40;99.90
15217;DHT22;7711;46.634;14.318;2022-08-05T04:09:14;18.40;99.90
15217;DHT22;7711;46.634;14.318;2022-08-05T04:11:42;18.40;99.90
15217;DHT22;7711;46.634;14.318;2022-08-05T04:14:09;18.40;99.90
15217;DHT22;7711;46.634;14.318;2022-08-05T04:16:37;18.60;99.90
15217;DHT22;7711;46.634;14.318;2022-08-05T04:19:05;18.60;99.90
15217;DHT22;7711;46.634;14.318;2022-08-05T04:21:34;18.60;99.90
15217;DHT22;7711;46.634;14.318;2022-08-05T04:24:02;18.60;99.90
15217;DHT22;7711;46.634;14.318;2022-08-05T04:26:31;18.60;99.90
15217;DHT22;7711;46.634;14.318;2022-08-05T04:29:01;18.60;99.90
15217;DHT22;7711;46.634;14.318;2022-08-05T04:31:29;18.70;99.90
15217;DHT22;7711;46.634;14.318;2022-08-05T04:33:58;18.70;99.90
15217;DHT22;7711;46.634;14.318;2022-08-05T04:36:29;18.90;99.90
15217;DHT22;7711;46.634;14.318;2022-08-05T04:38:58;18.90;99.90
15217;DHT22;7711;46.634;14.318;2022-08-05T04:41:26;18.90;99.90
15217;DHT22;7711;46.634;14.318;2022-08-05T04:43:57;18.90;99.90
15217;DHT22;7711;46.634;14.318;2022-08-05T04:46:26;19.00;99.90
15217;DHT22;7711;46.634;14.318;2022-08-05T04:48:54;19.10;99.90
15217;DHT22;7711;46.634;14.318;2022-08-05T04:51:22;19.20;99.90
15217;DHT22;7711;46.634;14.318;2022-08-05T04:53:49;19.20;99.90
15217;DHT22;7711;46.634;14.318;2022-08-05T04:56:22;19.30;99.90
15217;DHT22;7711;46.634;14.318;2022-08-05T04:58:49;19.40;99.90
15217;DHT22;7711;46.634;14.318;2022-08-05T05:01:19;19.50;99.90
15217;DHT22;7711;46.634;14.318;2022-08-05T05:03:47;19.50;99.90
15217;DHT22;7711;46.634;14.318;2022-08-05T05:06:14;19.60;99.90
15217;DHT22;7711;46.634;14.318;2022-08-05T05:08:44;19.70;99.90
15217;DHT22;7711;46.634;14.318;2022-08-05T05:11:12;19.70;99.90
15217;DHT22;7711;46.634;14.318;2022-08-05T05:13:41;19.90;99.90
15217;DHT22;7711;46.634;14.318;2022-08-05T05:16:09;19.90;99.90
15217;DHT22;7711;46.634;14.318;2022-08-05T05:18:36;20.00;99.90
15217;DHT22;7711;46.634;14.318;2022-08-05T05:21:04;20.00;99.90
15217;DHT22;7711;46.634;14.318;2022-08-05T05:23:33;20.10;99.90
15217;DHT22;7711;46.634;14.318;2022-08-05T05:26:01;20.20;99.90
15217;DHT22;7711;46.634;14.318;2022-08-05T05:28:29;20.30;99.90
15217;DHT22;7711;46.634;14.318;2022-08-05T05:30:58;20.30;99.90
15217;DHT22;7711;46.634;14.318;2022-08-05T05:33:26;20.40;99.90
15217;DHT22;7711;46.634;14.318;2022-08-05T05:35:56;20.50;99.90
15217;DHT22;7711;46.634;14.318;2022-08-05T05:38:27;20.70;99.90
15217;DHT22;7711;46.634;14.318;2022-08-05T05:40:55;20.70;99.90
15217;DHT22;7711;46.634;14.318;2022-08-05T05:43:24;20.80;99.90
15217;DHT22;7711;46.634;14.318;2022-08-05T05:45:52;20.90;99.90
15217;DHT22;7711;46.634;14.318;2022-08-05T05:48:23;21.00;99.90
15217;DHT22;7711;46.634;14.318;2022-08-05T05:50:51;21.20;99.90
15217;DHT22;7711;46.634;14.318;2022-08-05T05:53:19;21.30;99.90
15217;DHT22;7711;46.634;14.318;2022-08-05T05:55:47;21.30;99.90
15217;DHT22;7711;46.634;14.318;2022-08-05T05:58:15;21.40;99.90
15217;DHT22;7711;46.634;14.318;2022-08-05T06:00:42;21.70;99.90
15217;DHT22;7711;46.634;14.318;2022-08-05T06:03:13;21.80;99.90
15217;DHT22;7711;46.634;14.318;2022-08-05T06:05:42;21.90;99.90
15217;DHT22;7711;46.634;14.318;2022-08-05T06:08:09;22.20;99.90
15217;DHT22;7711;46.634;14.318;2022-08-05T06:10:36;22.30;99.90
15217;DHT22;7711;46.634;14.318;2022-08-05T06:13:04;22.40;99.90
15217;DHT22;7711;46.634;14.318;2022-08-05T06:15:32;22.60;99.90
15217;DHT22;7711;46.634;14.318;2022-08-05T06:18:00;22.70;99.90
15217;DHT22;7711;46.634;14.318;2022-08-05T06:20:30;22.60;99.90
15217;DHT22;7711;46.634;14.318;2022-08-05T06:22:59;22.70;99.90
15217;DHT22;7711;46.634;14.318;2022-08-05T06:25:29;22.60;99.90
15217;DHT22;7711;46.634;14.318;2022-08-05T06:27:56;22.80;99.90
15217;DHT22;7711;46.634;14.318;2022-08-05T06:30:23;22.80;99.90
15217;DHT22;7711;46.634;14.318;2022-08-05T06:32:53;22.80;99.90
15217;DHT22;7711;46.634;14.318;2022-08-05T06:35:20;22.90;99.90
15217;DHT22;7711;46.634;14.318;2022-08-05T06:37:50;23.20;99.90
15217;DHT22;7711;46.634;14.318;2022-08-05T06:40:19;23.30;99.90
15217;DHT22;7711;46.634;14.318;2022-08-05T06:42:48;23.30;99.90
15217;DHT22;7711;46.634;14.318;2022-08-05T06:45:15;23.50;99.90
15217;DHT22;7711;46.634;14.318;2022-08-05T06:47:44;23.50;99.90
15217;DHT22;7711;46.634;14.318;2022-08-05T06:50:12;23.60;99.90
15217;DHT22;7711;46.634;14.318;2022-08-05T06:52:39;23.60;99.90
15217;DHT22;7711;46.634;14.318;2022-08-05T06:55:07;23.90;99.90
15217;DHT22;7711;46.634;14.318;2022-08-05T06:57:37;24.00;99.90
15217;DHT22;7711;46.634;14.318;2022-08-05T07:00:05;23.80;99.90
15217;DHT22;7711;46.634;14.318;2022-08-05T07:02:40;24.00;99.90
15217;DHT22;7711;46.634;14.318;2022-08-05T07:05:11;24.20;99.90
15217;DHT22;7711;46.634;14.318;2022-08-05T07:07:40;24.40;99.90
15217;DHT22;7711;46.634;14.318;2022-08-05T07:10:09;24.60;99.90
15217;DHT22;7711;46.634;14.318;2022-08-05T07:12:39;24.60;99.90
15217;DHT22;7711;46.634;14.318;2022-08-05T07:15:23;24.40;99.90
15217;DHT22;7711;46.634;14.318;2022-08-05T07:18:08;24.60;99.90
15217;DHT22;7711;46.634;14.318;2022-08-05T07:20:35;24.70;99.90
15217;DHT22;7711;46.634;14.318;2022-08-05T07:23:04;24.50;99.90
15217;DHT22;7711;46.634;14.318;2022-08-05T07:25:34;24.60;99.90
15217;DHT22;7711;46.634;14.318;2022-08-05T07:28:03;24.90;99.90
15217;DHT22;7711;46.634;14.318;2022-08-05T07:30:33;24.80;99.90
15217;DHT22;7711;46.634;14.318;2022-08-05T07:33:01;24.80;99.90
15217;DHT22;7711;46.634;14.318;2022-08-05T07:35:31;25.20;99.90
15217;DHT22;7711;46.634;14.318;2022-08-05T07:37:58;25.30;99.90
15217;DHT22;7711;46.634;14.318;2022-08-05T07:40:25;25.40;99.90
15217;DHT22;7711;46.634;14.318;2022-08-05T07:42:53;25.50;99.90
15217;DHT22;7711;46.634;14.318;2022-08-05T07:45:21;25.40;99.90
15217;DHT22;7711;46.634;14.318;2022-08-05T07:47:48;25.30;99.90
15217;DHT22;7711;46.634;14.318;2022-08-05T07:50:18;25.50;99.90
15217;DHT22;7711;46.634;14.318;2022-08-05T07:52:45;25.90;99.90
15217;DHT22;7711;46.634;14.318;2022-08-05T07:55:14;25.90;99.90
15217;DHT22;7711;46.634;14.318;2022-08-05T07:57:41;26.30;99.90
15217;DHT22;7711;46.634;14.318;2022-08-05T08:00:09;26.40;99.90
15217;DHT22;7711;46.634;14.318;2022-08-05T08:02:40;26.70;99.90
15217;DHT22;7711;46.634;14.318;2022-08-05T08:05:09;26.40;99.90
15217;DHT22;7711;46.634;14.318;2022-08-05T08:07:36;26.20;99.90
15217;DHT22;7711;46.634;14.318;2022-08-05T08:10:04;26.30;99.90
15217;DHT22;7711;46.634;14.318;2022-08-05T08:12:33;26.40;99.90
15217;DHT22;7711;46.634;14.318;2022-08-05T08:15:00;26.70;99.90
15217;DHT22;7711;46.634;14.318;2022-08-05T08:17:27;26.80;99.90
15217;DHT22;7711;46.634;14.318;2022-08-05T08:19:56;26.80;99.90
15217;DHT22;7711;46.634;14.318;2022-08-05T08:22:25;26.50;99.90
15217;DHT22;7711;46.634;14.318;2022-08-05T08:24:55;26.70;99.90
15217;DHT22;7711;46.634;14.318;2022-08-05T08:27:22;26.70;99.90
15217;DHT22;7711;46.634;14.318;2022-08-05T08:29:50;26.90;99.90
15217;DHT22;7711;46.634;14.318;2022-08-05T08:32:17;26.90;99.90
15217;DHT22;7711;46.634;14.318;2022-08-05T08:34:48;27.30;99.90
15217;DHT22;7711;46.634;14.318;2022-08-05T08:37:17;27.60;99.90
15217;DHT22;7711;46.634;14.318;2022-08-05T08:39:44;27.70;99.90
15217;DHT22;7711;46.634;14.318;2022-08-05T08:42:13;27.80;99.90
15217;DHT22;7711;46.634;14.318;2022-08-05T08:44:41;27.80;99.90
15217;DHT22;7711;46.634;14.318;2022-08-05T08:47:08;28.10;99.90
15217;DHT22;7711;46.634;14.318;2022-08-05T08:49:37;27.90;99.90
15217;DHT22;7711;46.634;14.318;2022-08-05T08:52:10;28.10;99.90
15217;DHT22;7711;46.634;14.318;2022-08-05T08:54:40;28.10;99.90
15217;DHT22;7711;46.634;14.318;2022-08-05T08:57:09;27.80;99.90
15217;DHT22;7711;46.634;14.318;2022-08-05T08:59:37;27.90;99.90
15217;DHT22;7711;46.634;14.318;2022-08-05T09:02:05;27.80;99.90
15217;DHT22;7711;46.634;14.318;2022-08-05T09:04:33;27.80;99.90
15217;DHT22;7711;46.634;14.318;2022-08-05T09:07:03;27.90;99.90
15217;DHT22;7711;46.634;14.318;2022-08-05T09:09:33;28.10;99.90
15217;DHT22;7711;46.634;14.318;2022-08-05T09:12:03;28.30;99.90
15217;DHT22;7711;46.634;14.318;2022-08-05T09:14:31;28.60;99.90
15217;DHT22;7711;46.634;14.318;2022-08-05T09:16:58;28.70;99.90
15217;DHT22;7711;46.634;14.318;2022-08-05T09:19:26;29.00;99.90
15217;DHT22;7711;46.634;14.318;2022-08-05T09:21:53;28.80;99.90
15217;DHT22;7711;46.634;14.318;2022-08-05T09:24:21;29.10;99.90
15217;DHT22;7711;46.634;14.318;2022-08-05T09:26:54;28.80;99.90
15217;DHT22;7711;46.634;14.318;2022-08-05T09:29:37;29.00;99.90
15217;DHT22;7711;46.634;14.318;2022-08-05T09:32:05;28.70;99.90
15217;DHT22;7711;46.634;14.318;2022-08-05T09:34:46;28.70;99.90
15217;DHT22;7711;46.634;14.318;2022-08-05T09:37:17;29.20;99.90
15217;DHT22;7711;46.634;14.318;2022-08-05T09:39:45;29.60;99.90
15217;DHT22;7711;46.634;14.318;2022-08-05T09:42:15;30.00;99.90
15217;DHT22;7711;46.634;14.318;2022-08-05T09:44:45;29.90;99.90
15217;DHT22;7711;46.634;14.318;2022-08-05T09:47:14;30.00;99.90
15217;DHT22;7711;46.634;14.318;2022-08-05T09:49:44;30.40;99.90
15217;DHT22;7711;46.634;14.318;2022-08-05T09:52:24;30.40;99.90
15217;DHT22;7711;46.634;14.318;2022-08-05T09:54:53;30.50;99.90
15217;DHT22;7711;46.634;14.318;2022-08-05T09:57:31;30.60;99.90
15217;DHT22;7711;46.634;14.318;2022-08-05T10:00:07;30.60;99.90
15217;DHT22;7711;46.634;14.318;2022-08-05T10:02:39;30.70;99.90
15217;DHT22;7711;46.634;14.318;2022-08-05T10:05:09;30.60;99.90
15217;DHT22;7711;46.634;14.318;2022-08-05T10:07:48;30.50;99.90
15217;DHT22;7711;46.634;14.318;2022-08-05T10:10:16;30.70;99.90
15217;DHT22;7711;46.634;14.318;2022-08-05T10:12:47;30.70;99.90
15217;DHT22;7711;46.634;14.318;2022-08-05T10:15:21;30.70;99.90
15217;DHT22;7711;46.634;14.318;2022-08-05T10:18:11;30.40;99.90
15217;DHT22;7711;46.634;14.318;2022-08-05T10:20:41;30.70;99.90
15217;DHT22;7711;46.634;14.318;2022-08-05T10:23:13;31.10;99.90
15217;DHT22;7711;46.634;14.318;2022-08-05T10:25:41;31.10;99.70
15217;DHT22;7711;46.634;14.318;2022-08-05T10:28:08;31.20;99.80
15217;DHT22;7711;46.634;14.318;2022-08-05T10:30:38;31.30;99.40
15217;DHT22;7711;46.634;14.318;2022-08-05T10:33:05;31.20;99.50
15217;DHT22;7711;46.634;14.318;2022-08-05T10:35:35;31.20;99.30
15217;DHT22;7711;46.634;14.318;2022-08-05T10:38:03;31.20;99.90
15217;DHT22;7711;46.634;14.318;2022-08-05T10:40:35;31.20;99.10
15217;DHT22;7711;46.634;14.318;2022-08-05T10:43:11;31.50;98.70
15217;DHT22;7711;46.634;14.318;2022-08-05T10:45:40;32.00;98.90
15217;DHT22;7711;46.634;14.318;2022-08-05T10:48:29;32.00;97.00
15217;DHT22;7711;46.634;14.318;2022-08-05T10:51:01;32.00;97.70
15217;DHT22;7711;46.634;14.318;2022-08-05T10:53:37;32.30;96.60
15217;DHT22;7711;46.634;14.318;2022-08-05T10:56:07;32.20;95.80
15217;DHT22;7711;46.634;14.318;2022-08-05T10:58:35;32.20;95.50
15217;DHT22;7711;46.634;14.318;2022-08-05T11:01:15;32.20;95.80
15217;DHT22;7711;46.634;14.318;2022-08-05T11:04:06;32.60;95.80
15217;DHT22;7711;46.634;14.318;2022-08-05T11:07:03;32.60;94.40
15217;DHT22;7711;46.634;14.318;2022-08-05T11:09:37;32.60;94.60
15217;DHT22;7711;46.634;14.318;2022-08-05T11:14:47;33.20;94.70
15217;DHT22;7711;46.634;14.318;2022-08-05T11:17:33;33.40;95.10
15217;DHT22;7711;46.634;14.318;2022-08-05T11:20:04;33.00;93.70
15217;DHT22;7711;46.634;14.318;2022-08-05T11:22:39;33.30;93.80
15217;DHT22;7711;46.634;14.318;2022-08-05T11:25:31;33.20;93.50
15217;DHT22;7711;46.634;14.318;2022-08-05T11:28:41;33.20;91.80
15217;DHT22;7711;46.634;14.318;2022-08-05T11:31:28;33.60;93.20
15217;DHT22;7711;46.634;14.318;2022-08-05T11:34:09;34.00;91.50
15217;DHT22;7711;46.634;14.318;2022-08-05T11:36:48;34.20;91.30
15217;DHT22;7711;46.634;14.318;2022-08-05T11:42:04;33.80;90.40
15217;DHT22;7711;46.634;14.318;2022-08-05T11:44:36;33.20;89.70
15217;DHT22;7711;46.634;14.318;2022-08-05T11:47:06;33.40;87.60
15217;DHT22;7711;46.634;14.318;2022-08-05T11:49:36;33.40;86.50
15217;DHT22;7711;46.634;14.318;2022-08-05T11:52:03;33.90;87.90
15217;DHT22;7711;46.634;14.318;2022-08-05T11:54:32;34.30;88.50
15217;DHT22;7711;46.634;14.318;2022-08-05T11:57:04;34.80;90.00
15217;DHT22;7711;46.634;14.318;2022-08-05T11:59:32;34.90;87.20
15217;DHT22;7711;46.634;14.318;2022-08-05T12:02:02;35.30;87.90
15217;DHT22;7711;46.634;14.318;2022-08-05T12:04:39;35.70;85.30
15217;DHT22;7711;46.634;14.318;2022-08-05T12:07:07;35.10;85.20
15217;DHT22;7711;46.634;14.318;2022-08-05T12:09:38;35.50;83.90
15217;DHT22;7711;46.634;14.318;2022-08-05T12:12:07;35.40;81.60
15217;DHT22;7711;46.634;14.318;2022-08-05T12:14:39;34.80;82.50
15217;DHT22;7711;46.634;14.318;2022-08-05T12:17:07;34.60;81.70
15217;DHT22;7711;46.634;14.318;2022-08-05T12:19:42;34.60;82.90
15217;DHT22;7711;46.634;14.318;2022-08-05T12:22:10;34.80;83.90
15217;DHT22;7711;46.634;14.318;2022-08-05T12:24:41;35.60;83.10
15217;DHT22;7711;46.634;14.318;2022-08-05T12:27:09;36.00;83.30
15217;DHT22;7711;46.634;14.318;2022-08-05T12:29:36;36.30;81.60
15217;DHT22;7711;46.634;14.318;2022-08-05T12:32:04;36.30;80.10
15217;DHT22;7711;46.634;14.318;2022-08-05T12:34:33;35.80;78.00
15217;DHT22;7711;46.634;14.318;2022-08-05T12:37:05;35.80;78.70
15217;DHT22;7711;46.634;14.318;2022-08-05T12:39:37;35.90;78.80
15217;DHT22;7711;46.634;14.318;2022-08-05T12:42:09;35.90;77.50
15217;DHT22;7711;46.634;14.318;2022-08-05T12:44:36;35.90;76.70
15217;DHT22;7711;46.634;14.318;2022-08-05T12:47:04;35.50;77.30
15217;DHT22;7711;46.634;14.318;2022-08-05T12:49:43;35.50;79.80
15217;DHT22;7711;46.634;14.318;2022-08-05T12:52:13;36.00;78.90
15217;DHT22;7711;46.634;14.318;2022-08-05T12:54:41;36.00;74.90
15217;DHT22;7711;46.634;14.318;2022-08-05T12:57:10;35.30;75.70
15217;DHT22;7711;46.634;14.318;2022-08-05T12:59:46;35.40;74.60
15217;DHT22;7711;46.634;14.318;2022-08-05T13:02:17;36.10;75.30
15217;DHT22;7711;46.634;14.318;2022-08-05T13:04:45;36.50;74.30
15217;DHT22;7711;46.634;14.318;2022-08-05T13:07:16;36.30;73.80
15217;DHT22;7711;46.634;14.318;2022-08-05T13:09:48;36.70;73.10
15217;DHT22;7711;46.634;14.318;2022-08-05T13:12:17;36.30;72.00
15217;DHT22;7711;46.634;14.318;2022-08-05T13:14:48;36.50;71.90
15217;DHT22;7711;46.634;14.318;2022-08-05T13:17:20;37.40;72.90
15217;DHT22;7711;46.634;14.318;2022-08-05T13:19:58;37.80;71.30
15217;DHT22;7711;46.634;14.318;2022-08-05T13:22:27;37.80;69.20
15217;DHT22;7711;46.634;14.318;2022-08-05T13:24:57;38.40;68.10
15217;DHT22;7711;46.634;14.318;2022-08-05T13:27:25;38.80;67.50
15217;DHT22;7711;46.634;14.318;2022-08-05T13:29:53;38.80;68.50
15217;DHT22;7711;46.634;14.318;2022-08-05T13:32:20;38.60;65.60
15217;DHT22;7711;46.634;14.318;2022-08-05T13:34:48;39.80;66.40
15217;DHT22;7711;46.634;14.318;2022-08-05T13:37:18;40.90;64.30
15217;DHT22;7711;46.634;14.318;2022-08-05T13:39:47;41.00;61.70
15217;DHT22;7711;46.634;14.318;2022-08-05T13:42:17;41.50;61.60
15217;DHT22;7711;46.634;14.318;2022-08-05T13:44:44;41.70;58.70
15217;DHT22;7711;46.634;14.318;2022-08-05T13:47:14;41.40;58.50
15217;DHT22;7711;46.634;14.318;2022-08-05T13:49:43;40.40;57.60
15217;DHT22;7711;46.634;14.318;2022-08-05T13:52:11;39.40;58.90
15217;DHT22;7711;46.634;14.318;2022-08-05T13:54:39;40.90;58.40
15217;DHT22;7711;46.634;14.318;2022-08-05T13:57:08;41.80;58.30
15217;DHT22;7711;46.634;14.318;2022-08-05T13:59:38;41.90;56.20
15217;DHT22;7711;46.634;14.318;2022-08-05T14:02:06;41.80;53.60
15217;DHT22;7711;46.634;14.318;2022-08-05T14:04:35;42.50;54.80
15217;DHT22;7711;46.634;14.318;2022-08-05T14:07:22;42.70;53.00
15217;DHT22;7711;46.634;14.318;2022-08-05T14:09:49;43.80;52.30
15217;DHT22;7711;46.634;14.318;2022-08-05T14:12:18;44.10;51.40
15217;DHT22;7711;46.634;14.318;2022-08-05T14:14:47;43.50;50.30
15217;DHT22;7711;46.634;14.318;2022-08-05T14:17:16;43.40;49.80
15217;DHT22;7711;46.634;14.318;2022-08-05T14:19:44;43.40;51.00
15217;DHT22;7711;46.634;14.318;2022-08-05T14:22:14;42.70;50.70
15217;DHT22;7711;46.634;14.318;2022-08-05T14:24:42;41.50;51.20
15217;DHT22;7711;46.634;14.318;2022-08-05T14:27:11;41.20;51.50
15217;DHT22;7711;46.634;14.318;2022-08-05T14:29:39;41.40;51.60
15217;DHT22;7711;46.634;14.318;2022-08-05T14:32:07;41.40;51.60
15217;DHT22;7711;46.634;14.318;2022-08-05T14:34:34;41.70;50.80
15217;DHT22;7711;46.634;14.318;2022-08-05T14:37:04;41.00;49.80
15217;DHT22;7711;46.634;14.318;2022-08-05T14:39:32;41.60;50.30
15217;DHT22;7711;46.634;14.318;2022-08-05T14:42:01;42.40;51.30
15217;DHT22;7711;46.634;14.318;2022-08-05T14:44:29;42.10;49.20
15217;DHT22;7711;46.634;14.318;2022-08-05T14:46:58;41.30;49.10
15217;DHT22;7711;46.634;14.318;2022-08-05T14:49:25;39.30;50.00
15217;DHT22;7711;46.634;14.318;2022-08-05T14:51:55;38.50;51.40
15217;DHT22;7711;46.634;14.318;2022-08-05T14:54:22;36.10;54.60
15217;DHT22;7711;46.634;14.318;2022-08-05T14:56:49;33.50;57.60
15217;DHT22;7711;46.634;14.318;2022-08-05T14:59:17;31.90;60.20
15217;DHT22;7711;46.634;14.318;2022-08-05T15:01:45;31.10;62.20
15217;DHT22;7711;46.634;14.318;2022-08-05T15:04:16;30.70;63.60
15217;DHT22;7711;46.634;14.318;2022-08-05T15:06:46;30.40;64.70
15217;DHT22;7711;46.634;14.318;2022-08-05T15:09:13;30.00;66.00
15217;DHT22;7711;46.634;14.318;2022-08-05T15:11:41;29.60;67.90
15217;DHT22;7711;46.634;14.318;2022-08-05T15:14:11;29.00;70.10
15217;DHT22;7711;46.634;14.318;2022-08-05T15:16:40;29.00;71.00
15217;DHT22;7711;46.634;14.318;2022-08-05T15:19:07;28.70;72.00
15217;DHT22;7711;46.634;14.318;2022-08-05T15:21:35;28.80;72.50
15217;DHT22;7711;46.634;14.318;2022-08-05T15:24:03;28.70;73.30
15217;DHT22;7711;46.634;14.318;2022-08-05T15:26:34;28.70;73.20
15217;DHT22;7711;46.634;14.318;2022-08-05T15:29:02;29.10;72.70
15217;DHT22;7711;46.634;14.318;2022-08-05T15:31:29;29.20;72.10
15217;DHT22;7711;46.634;14.318;2022-08-05T15:33:56;29.20;72.50
15217;DHT22;7711;46.634;14.318;2022-08-05T15:36:26;29.10;73.50
15217;DHT22;7711;46.634;14.318;2022-08-05T15:38:55;28.90;74.40
15217;DHT22;7711;46.634;14.318;2022-08-05T15:41:23;28.70;75.80
15217;DHT22;7711;46.634;14.318;2022-08-05T15:43:50;28.40;77.60
15217;DHT22;7711;46.634;14.318;2022-08-05T15:46:19;28.10;80.60
15217;DHT22;7711;46.634;14.318;2022-08-05T15:48:46;27.80;82.90
15217;DHT22;7711;46.634;14.318;2022-08-05T15:51:13;27.60;84.10
15217;DHT22;7711;46.634;14.318;2022-08-05T15:53:40;27.20;85.10
15217;DHT22;7711;46.634;14.318;2022-08-05T15:56:12;26.90;86.50